sensor_id;sensor_type;location;lat;lon;timestamp;P1;durP1;ratioP1;P2;durP2;ratioP2
26359;SDS011;14063;41.426;13.854;2022-08-01T00:00:31;8.07;;;1.83;;
26359;SDS011;14063;41.426;13.854;2022-08-01T00:02:57;1.77;;;1.42;;
26359;SDS011;14063;41.426;13.854;2022-08-01T00:05:23;2.08;;;1.17;;
26359;SDS011;14063;41.426;13.854;2022-08-01T00:07:49;3.35;;;1.08;;
26359;SDS011;14063;41.426;13.854;2022-08-01T00:10:16;3.88;;;1.10;;
26359;SDS011;14063;41.426;13.854;2022-08-01T00:12:43;1.63;;;1.20;;
26359;SDS011;14063;41.426;13.854;2022-08-01T00:15:11;1.33;;;1.23;;
26359;SDS011;14063;41.426;13.854;2022-08-01T00:17:37;4.10;;;1.50;;
26359;SDS011;14063;41.426;13.854;2022-08-01T00:20:06;1.50;;;1.40;;
26359;SDS011;14063;41.426;13.854;2022-08-01T00:22:33;1.38;;;1.20;;
26359;SDS011;14063;41.426;13.854;2022-08-01T00:25:00;1.20;;;0.93;;
26359;SDS011;14063;41.426;13.854;2022-08-01T00:27:27;1.05;;;1.02;;
26359;SDS011;14063;41.426;13.854;2022-08-01T00:29:54;1.20;;;1.10;;
26359;SDS011;14063;41.426;13.854;2022-08-01T00:32:21;3.00;;;1.60;;
26359;SDS011;14063;41.426;13.854;2022-08-01T00:34:48;2.10;;;1.23;;
26359;SDS011;14063;41.426;13.854;2022-08-01T00:37:16;1.83;;;1.40;;
26359;SDS011;14063;41.426;13.854;2022-08-01T00:39:43;1.65;;;1.35;;
26359;SDS011;14063;41.426;13.854;2022-08-01T00:42:10;1.20;;;1.10;;
26359;SDS011;14063;41.426;13.854;2022-08-01T00:44:37;1.95;;;1.30;;
26359;SDS011;14063;41.426;13.854;2022-08-01T00:47:03;2.47;;;1.38;;
26359;SDS011;14063;41.426;13.854;2022-08-01T00:49:30;1.30;;;1.10;;
26359;SDS011;14063;41.426;13.854;2022-08-01T00:51:56;4.05;;;1.23;;
26359;SDS011;14063;41.426;13.854;2022-08-01T00:54:23;1.98;;;1.30;;
26359;SDS011;14063;41.426;13.854;2022-08-01T00:56:50;1.30;;;1.20;;
26359;SDS011;14063;41.426;13.854;2022-08-01T00:59:19;1.33;;;1.23;;
26359;SDS011;14063;41.426;13.854;2022-08-01T01:01:47;1.55;;;1.45;;
26359;SDS011;14063;41.426;13.854;2022-08-01T01:04:14;1.77;;;1.50;;
26359;SDS011;14063;41.426;13.854;2022-08-01T01:09:14;1.55;;;1.20;;
26359;SDS011;14063;41.426;13.854;2022-08-01T01:14:33;1.65;;;1.48;;
26359;SDS011;14063;41.426;13.854;2022-08-01T01:17:01;3.28;;;1.45;;
26359;SDS011;14063;41.426;13.854;2022-08-01T01:19:30;2.53;;;1.40;;
26359;SDS011;14063;41.426;13.854;2022-08-01T01:22:07;2.42;;;1.80;;
26359;SDS011;14063;41.426;13.854;2022-08-01T01:24:45;1.58;;;1.48;;
26359;SDS011;14063;41.426;13.854;2022-08-01T01:27:18;2.38;;;1.20;;
26359;SDS011;14063;41.426;13.854;2022-08-01T01:29:48;3.67;;;1.42;;
26359;SDS011;14063;41.426;13.854;2022-08-01T01:32:22;3.65;;;1.60;;
26359;SDS011;14063;41.426;13.854;2022-08-01T01:34:53;3.10;;;1.30;;
26359;SDS011;14063;41.426;13.854;2022-08-01T01:37:21;1.63;;;1.40;;
26359;SDS011;14063;41.426;13.854;2022-08-01T01:39:49;1.80;;;1.30;;
26359;SDS011;14063;41.426;13.854;2022-08-01T01:42:17;2.83;;;1.48;;
26359;SDS011;14063;41.426;13.854;2022-08-01T01:44:44;3.22;;;1.38;;
26359;SDS011;14063;41.426;13.854;2022-08-01T01:47:11;2.03;;;1.23;;
26359;SDS011;14063;41.426;13.854;2022-08-01T01:49:38;1.42;;;1.17;;
26359;SDS011;14063;41.426;13.854;2022-08-01T01:52:05;1.80;;;1.40;;
26359;SDS011;14063;41.426;13.854;2022-08-01T01:54:33;2.35;;;1.45;;
26359;SDS011;14063;41.426;13.854;2022-08-01T01:57:02;1.85;;;1.33;;
26359;SDS011;14063;41.426;13.854;2022-08-01T01:59:29;1.42;;;1.33;;
26359;SDS011;14063;41.426;13.854;2022-08-01T02:01:56;4.78;;;1.50;;
26359;SDS011;14063;41.426;13.854;2022-08-01T02:04:24;1.40;;;1.30;;
26359;SDS011;14063;41.426;13.854;2022-08-01T02:06:53;6.30;;;1.20;;
26359;SDS011;14063;41.426;13.854;2022-08-01T02:09:20;4.30;;;1.52;;
26359;SDS011;14063;41.426;13.854;2022-08-01T02:11:47;1.40;;;1.20;;
26359;SDS011;14063;41.426;13.854;2022-08-01T02:14:15;2.40;;;1.17;;
26359;SDS011;14063;41.426;13.854;2022-08-01T02:16:44;1.42;;;1.02;;
26359;SDS011;14063;41.426;13.854;2022-08-01T02:19:10;6.38;;;1.40;;
26359;SDS011;14063;41.426;13.854;2022-08-01T02:21:39;1.40;;;1.30;;
26359;SDS011;14063;41.426;13.854;2022-08-01T02:24:17;1.23;;;1.13;;
26359;SDS011;14063;41.426;13.854;2022-08-01T02:26:46;1.92;;;1.33;;
26359;SDS011;14063;41.426;13.854;2022-08-01T02:29:15;1.60;;;1.50;;
26359;SDS011;14063;41.426;13.854;2022-08-01T02:31:43;4.97;;;1.70;;
26359;SDS011;14063;41.426;13.854;2022-08-01T02:34:13;1.45;;;1.35;;
26359;SDS011;14063;41.426;13.854;2022-08-01T02:36:40;1.85;;;1.40;;
26359;SDS011;14063;41.426;13.854;2022-08-01T02:39:09;2.05;;;1.80;;
26359;SDS011;14063;41.426;13.854;2022-08-01T02:41:39;6.07;;;1.83;;
26359;SDS011;14063;41.426;13.854;2022-08-01T02:44:08;1.52;;;1.40;;
26359;SDS011;14063;41.426;13.854;2022-08-01T02:46:39;5.85;;;1.52;;
26359;SDS011;14063;41.426;13.854;2022-08-01T02:49:07;4.53;;;1.50;;
26359;SDS011;14063;41.426;13.854;2022-08-01T02:51:36;2.83;;;1.52;;
26359;SDS011;14063;41.426;13.854;2022-08-01T02:54:10;2.83;;;1.52;;
26359;SDS011;14063;41.426;13.854;2022-08-01T02:56:38;1.88;;;1.63;;
26359;SDS011;14063;41.426;13.854;2022-08-01T02:59:12;3.22;;;1.77;;
26359;SDS011;14063;41.426;13.854;2022-08-01T03:01:39;3.60;;;1.90;;
26359;SDS011;14063;41.426;13.854;2022-08-01T03:04:06;3.35;;;2.00;;
26359;SDS011;14063;41.426;13.854;2022-08-01T03:06:34;2.08;;;1.88;;
26359;SDS011;14063;41.426;13.854;2022-08-01T03:09:01;1.85;;;1.70;;
26359;SDS011;14063;41.426;13.854;2022-08-01T03:11:29;1.60;;;1.48;;
26359;SDS011;14063;41.426;13.854;2022-08-01T03:13:56;2.50;;;1.80;;
26359;SDS011;14063;41.426;13.854;2022-08-01T03:16:23;3.15;;;2.33;;
26359;SDS011;14063;41.426;13.854;2022-08-01T03:18:52;3.08;;;1.92;;
26359;SDS011;14063;41.426;13.854;2022-08-01T03:21:19;2.35;;;2.13;;
26359;SDS011;14063;41.426;13.854;2022-08-01T03:23:47;2.58;;;2.38;;
26359;SDS011;14063;41.426;13.854;2022-08-01T03:26:14;3.80;;;1.90;;
26359;SDS011;14063;41.426;13.854;2022-08-01T03:28:41;3.33;;;2.05;;
26359;SDS011;14063;41.426;13.854;2022-08-01T03:31:09;3.72;;;2.08;;
26359;SDS011;14063;41.426;13.854;2022-08-01T03:33:35;4.38;;;2.00;;
26359;SDS011;14063;41.426;13.854;2022-08-01T03:36:02;2.30;;;2.10;;
26359;SDS011;14063;41.426;13.854;2022-08-01T03:38:30;3.88;;;2.10;;
26359;SDS011;14063;41.426;13.854;2022-08-01T03:41:02;3.08;;;2.15;;
26359;SDS011;14063;41.426;13.854;2022-08-01T03:43:45;1.90;;;1.70;;
26359;SDS011;14063;41.426;13.854;2022-08-01T03:46:17;3.05;;;2.00;;
26359;SDS011;14063;41.426;13.854;2022-08-01T03:48:49;2.25;;;2.05;;
26359;SDS011;14063;41.426;13.854;2022-08-01T03:51:20;5.38;;;2.10;;
26359;SDS011;14063;41.426;13.854;2022-08-01T03:53:47;2.40;;;2.10;;
26359;SDS011;14063;41.426;13.854;2022-08-01T03:56:16;4.30;;;2.50;;
26359;SDS011;14063;41.426;13.854;2022-08-01T03:58:44;5.03;;;2.40;;
26359;SDS011;14063;41.426;13.854;2022-08-01T04:01:11;4.07;;;2.70;;
26359;SDS011;14063;41.426;13.854;2022-08-01T04:03:47;4.35;;;2.67;;
26359;SDS011;14063;41.426;13.854;2022-08-01T04:06:15;5.32;;;2.55;;
26359;SDS011;14063;41.426;13.854;2022-08-01T04:08:44;5.30;;;2.50;;
26359;SDS011;14063;41.426;13.854;2022-08-01T04:11:20;5.70;;;2.63;;
26359;SDS011;14063;41.426;13.854;2022-08-01T04:13:50;5.55;;;2.50;;
26359;SDS011;14063;41.426;13.854;2022-08-01T04:16:17;5.20;;;2.60;;
26359;SDS011;14063;41.426;13.854;2022-08-01T04:18:43;3.03;;;2.72;;
26359;SDS011;14063;41.426;13.854;2022-08-01T04:21:10;4.55;;;2.55;;
26359;SDS011;14063;41.426;13.854;2022-08-01T04:23:37;4.05;;;2.72;;
26359;SDS011;14063;41.426;13.854;2022-08-01T04:26:05;4.28;;;2.42;;
26359;SDS011;14063;41.426;13.854;2022-08-01T04:28:33;3.78;;;2.53;;
26359;SDS011;14063;41.426;13.854;2022-08-01T04:31:01;5.85;;;3.47;;
26359;SDS011;14063;41.426;13.854;2022-08-01T04:33:28;2.63;;;2.30;;
26359;SDS011;14063;41.426;13.854;2022-08-01T04:35:56;4.93;;;2.20;;
26359;SDS011;14063;41.426;13.854;2022-08-01T04:38:25;4.32;;;2.75;;
26359;SDS011;14063;41.426;13.854;2022-08-01T04:40:52;7.65;;;2.97;;
26359;SDS011;14063;41.426;13.854;2022-08-01T04:43:20;3.42;;;2.95;;
26359;SDS011;14063;41.426;13.854;2022-08-01T04:45:47;4.80;;;3.33;;
26359;SDS011;14063;41.426;13.854;2022-08-01T04:48:15;6.78;;;3.60;;
26359;SDS011;14063;41.426;13.854;2022-08-01T04:50:44;3.45;;;2.92;;
26359;SDS011;14063;41.426;13.854;2022-08-01T04:53:14;4.03;;;3.20;;
26359;SDS011;14063;41.426;13.854;2022-08-01T04:55:47;5.93;;;3.35;;
26359;SDS011;14063;41.426;13.854;2022-08-01T04:58:16;5.00;;;2.97;;
26359;SDS011;14063;41.426;13.854;2022-08-01T05:00:43;3.30;;;3.00;;
26359;SDS011;14063;41.426;13.854;2022-08-01T05:03:10;3.83;;;2.85;;
26359;SDS011;14063;41.426;13.854;2022-08-01T05:05:36;4.28;;;2.80;;
26359;SDS011;14063;41.426;13.854;2022-08-01T05:08:03;8.75;;;3.45;;
26359;SDS011;14063;41.426;13.854;2022-08-01T05:10:31;6.70;;;3.10;;
26359;SDS011;14063;41.426;13.854;2022-08-01T05:12:57;4.93;;;3.42;;
26359;SDS011;14063;41.426;13.854;2022-08-01T05:15:24;5.72;;;3.60;;
26359;SDS011;14063;41.426;13.854;2022-08-01T05:17:52;6.90;;;4.63;;
26359;SDS011;14063;41.426;13.854;2022-08-01T05:20:18;3.50;;;2.90;;
26359;SDS011;14063;41.426;13.854;2022-08-01T05:22:45;3.75;;;3.03;;
26359;SDS011;14063;41.426;13.854;2022-08-01T05:25:12;2.63;;;2.42;;
26359;SDS011;14063;41.426;13.854;2022-08-01T05:27:38;4.32;;;2.60;;
26359;SDS011;14063;41.426;13.854;2022-08-01T05:30:09;3.00;;;2.75;;
26359;SDS011;14063;41.426;13.854;2022-08-01T05:32:36;3.30;;;3.00;;
26359;SDS011;14063;41.426;13.854;2022-08-01T05:35:03;2.35;;;2.05;;
26359;SDS011;14063;41.426;13.854;2022-08-01T05:37:30;2.60;;;2.40;;
26359;SDS011;14063;41.426;13.854;2022-08-01T05:39:56;2.85;;;2.50;;
26359;SDS011;14063;41.426;13.854;2022-08-01T05:42:23;3.72;;;2.42;;
26359;SDS011;14063;41.426;13.854;2022-08-01T05:44:49;5.10;;;2.60;;
26359;SDS011;14063;41.426;13.854;2022-08-01T05:47:16;3.40;;;2.78;;
26359;SDS011;14063;41.426;13.854;2022-08-01T05:49:44;3.60;;;2.53;;
26359;SDS011;14063;41.426;13.854;2022-08-01T05:52:11;3.10;;;2.55;;
26359;SDS011;14063;41.426;13.854;2022-08-01T05:54:38;2.50;;;2.30;;
26359;SDS011;14063;41.426;13.854;2022-08-01T05:57:04;2.95;;;2.50;;
26359;SDS011;14063;41.426;13.854;2022-08-01T05:59:31;3.47;;;2.60;;
26359;SDS011;14063;41.426;13.854;2022-08-01T06:01:58;4.35;;;2.50;;
26359;SDS011;14063;41.426;13.854;2022-08-01T06:04:24;5.78;;;2.50;;
26359;SDS011;14063;41.426;13.854;2022-08-01T06:06:51;4.03;;;2.45;;
26359;SDS011;14063;41.426;13.854;2022-08-01T06:09:17;3.70;;;2.80;;
26359;SDS011;14063;41.426;13.854;2022-08-01T06:11:44;4.32;;;3.13;;
26359;SDS011;14063;41.426;13.854;2022-08-01T06:14:10;4.50;;;2.92;;
26359;SDS011;14063;41.426;13.854;2022-08-01T06:16:36;4.75;;;2.25;;
26359;SDS011;14063;41.426;13.854;2022-08-01T06:19:02;5.20;;;3.10;;
26359;SDS011;14063;41.426;13.854;2022-08-01T06:21:29;2.67;;;2.47;;
26359;SDS011;14063;41.426;13.854;2022-08-01T06:23:55;4.78;;;2.47;;
26359;SDS011;14063;41.426;13.854;2022-08-01T06:26:22;9.77;;;2.40;;
26359;SDS011;14063;41.426;13.854;2022-08-01T06:28:48;3.83;;;2.53;;
26359;SDS011;14063;41.426;13.854;2022-08-01T06:31:15;3.80;;;2.30;;
26359;SDS011;14063;41.426;13.854;2022-08-01T06:33:41;4.78;;;2.40;;
26359;SDS011;14063;41.426;13.854;2022-08-01T06:36:07;4.88;;;2.60;;
26359;SDS011;14063;41.426;13.854;2022-08-01T06:38:34;2.80;;;2.60;;
26359;SDS011;14063;41.426;13.854;2022-08-01T06:41:00;3.55;;;2.40;;
26359;SDS011;14063;41.426;13.854;2022-08-01T06:43:27;4.68;;;2.67;;
26359;SDS011;14063;41.426;13.854;2022-08-01T06:45:53;4.50;;;2.47;;
26359;SDS011;14063;41.426;13.854;2022-08-01T06:48:19;9.18;;;2.60;;
26359;SDS011;14063;41.426;13.854;2022-08-01T06:50:46;5.30;;;2.60;;
26359;SDS011;14063;41.426;13.854;2022-08-01T06:53:12;3.20;;;2.60;;
26359;SDS011;14063;41.426;13.854;2022-08-01T06:55:38;3.63;;;2.70;;
26359;SDS011;14063;41.426;13.854;2022-08-01T06:58:05;5.20;;;1.98;;
26359;SDS011;14063;41.426;13.854;2022-08-01T07:00:31;4.93;;;3.03;;
26359;SDS011;14063;41.426;13.854;2022-08-01T07:02:57;3.00;;;2.28;;
26359;SDS011;14063;41.426;13.854;2022-08-01T07:05:25;2.67;;;2.47;;
26359;SDS011;14063;41.426;13.854;2022-08-01T07:07:51;2.75;;;2.50;;
26359;SDS011;14063;41.426;13.854;2022-08-01T07:10:18;4.93;;;2.15;;
26359;SDS011;14063;41.426;13.854;2022-08-01T07:12:44;3.20;;;2.42;;
26359;SDS011;14063;41.426;13.854;2022-08-01T07:15:11;2.45;;;2.22;;
26359;SDS011;14063;41.426;13.854;2022-08-01T07:17:38;2.10;;;2.00;;
26359;SDS011;14063;41.426;13.854;2022-08-01T07:20:05;3.08;;;2.30;;
26359;SDS011;14063;41.426;13.854;2022-08-01T07:22:31;3.72;;;2.10;;
26359;SDS011;14063;41.426;13.854;2022-08-01T07:24:58;2.35;;;1.88;;
26359;SDS011;14063;41.426;13.854;2022-08-01T07:27:24;1.95;;;1.75;;
26359;SDS011;14063;41.426;13.854;2022-08-01T07:29:50;2.35;;;2.00;;
26359;SDS011;14063;41.426;13.854;2022-08-01T07:32:16;2.78;;;2.45;;
26359;SDS011;14063;41.426;13.854;2022-08-01T07:34:43;3.67;;;2.15;;
26359;SDS011;14063;41.426;13.854;2022-08-01T07:37:09;2.65;;;2.10;;
26359;SDS011;14063;41.426;13.854;2022-08-01T07:39:35;3.92;;;1.95;;
26359;SDS011;14063;41.426;13.854;2022-08-01T07:42:01;4.03;;;2.10;;
26359;SDS011;14063;41.426;13.854;2022-08-01T07:44:28;3.60;;;2.03;;
26359;SDS011;14063;41.426;13.854;2022-08-01T07:46:54;2.38;;;1.95;;
26359;SDS011;14063;41.426;13.854;2022-08-01T07:49:20;3.08;;;2.00;;
26359;SDS011;14063;41.426;13.854;2022-08-01T07:51:47;1.90;;;1.80;;
26359;SDS011;14063;41.426;13.854;2022-08-01T07:54:13;2.10;;;1.73;;
26359;SDS011;14063;41.426;13.854;2022-08-01T07:56:39;2.92;;;2.10;;
26359;SDS011;14063;41.426;13.854;2022-08-01T07:59:06;6.10;;;1.95;;
26359;SDS011;14063;41.426;13.854;2022-08-01T08:01:32;2.88;;;2.00;;
26359;SDS011;14063;41.426;13.854;2022-08-01T08:03:58;3.03;;;1.92;;
26359;SDS011;14063;41.426;13.854;2022-08-01T08:06:25;1.80;;;1.70;;
26359;SDS011;14063;41.426;13.854;2022-08-01T08:08:58;1.50;;;1.40;;
26359;SDS011;14063;41.426;13.854;2022-08-01T08:11:25;2.00;;;1.85;;
26359;SDS011;14063;41.426;13.854;2022-08-01T08:13:51;1.60;;;1.50;;
26359;SDS011;14063;41.426;13.854;2022-08-01T08:16:17;2.13;;;1.92;;
26359;SDS011;14063;41.426;13.854;2022-08-01T08:18:43;1.60;;;1.50;;
26359;SDS011;14063;41.426;13.854;2022-08-01T08:21:10;4.22;;;1.83;;
26359;SDS011;14063;41.426;13.854;2022-08-01T08:23:36;2.30;;;2.10;;
26359;SDS011;14063;41.426;13.854;2022-08-01T08:26:21;2.42;;;1.70;;
26359;SDS011;14063;41.426;13.854;2022-08-01T08:28:48;1.88;;;1.77;;
26359;SDS011;14063;41.426;13.854;2022-08-01T08:31:15;4.68;;;1.70;;
26359;SDS011;14063;41.426;13.854;2022-08-01T08:33:41;8.13;;;2.75;;
26359;SDS011;14063;41.426;13.854;2022-08-01T08:36:07;2.28;;;1.67;;
26359;SDS011;14063;41.426;13.854;2022-08-01T08:38:34;3.13;;;2.00;;
26359;SDS011;14063;41.426;13.854;2022-08-01T08:41:00;2.55;;;2.00;;
26359;SDS011;14063;41.426;13.854;2022-08-01T08:43:26;2.15;;;1.98;;
26359;SDS011;14063;41.426;13.854;2022-08-01T08:45:53;2.00;;;1.77;;
26359;SDS011;14063;41.426;13.854;2022-08-01T08:48:19;3.53;;;2.10;;
26359;SDS011;14063;41.426;13.854;2022-08-01T08:50:47;1.95;;;1.85;;
26359;SDS011;14063;41.426;13.854;2022-08-01T08:53:13;2.15;;;2.05;;
26359;SDS011;14063;41.426;13.854;2022-08-01T08:55:41;2.00;;;1.90;;
26359;SDS011;14063;41.426;13.854;2022-08-01T08:58:11;2.95;;;2.20;;
26359;SDS011;14063;41.426;13.854;2022-08-01T09:00:39;2.35;;;2.15;;
26359;SDS011;14063;41.426;13.854;2022-08-01T09:03:05;2.47;;;2.10;;
26359;SDS011;14063;41.426;13.854;2022-08-01T09:05:32;2.33;;;2.22;;
26359;SDS011;14063;41.426;13.854;2022-08-01T09:07:59;2.65;;;2.45;;
26359;SDS011;14063;41.426;13.854;2022-08-01T09:10:25;2.10;;;2.00;;
26359;SDS011;14063;41.426;13.854;2022-08-01T09:15:45;2.10;;;2.00;;
26359;SDS011;14063;41.426;13.854;2022-08-01T09:18:28;6.38;;;2.03;;
26359;SDS011;14063;41.426;13.854;2022-08-01T09:23:46;2.95;;;2.75;;
26359;SDS011;14063;41.426;13.854;2022-08-01T09:26:14;2.40;;;2.30;;
26359;SDS011;14063;41.426;13.854;2022-08-01T09:28:41;2.45;;;2.25;;
26359;SDS011;14063;41.426;13.854;2022-08-01T09:31:09;2.42;;;2.25;;
26359;SDS011;14063;41.426;13.854;2022-08-01T09:36:15;2.78;;;2.67;;
26359;SDS011;14063;41.426;13.854;2022-08-01T09:38:41;2.38;;;2.28;;
26359;SDS011;14063;41.426;13.854;2022-08-01T09:41:08;5.03;;;3.30;;
26359;SDS011;14063;41.426;13.854;2022-08-01T09:43:36;3.15;;;2.90;;
26359;SDS011;14063;41.426;13.854;2022-08-01T09:46:10;2.58;;;2.47;;
26359;SDS011;14063;41.426;13.854;2022-08-01T09:48:36;3.67;;;2.70;;
26359;SDS011;14063;41.426;13.854;2022-08-01T09:51:04;7.30;;;3.20;;
26359;SDS011;14063;41.426;13.854;2022-08-01T09:54:32;8.18;;;3.45;;
26359;SDS011;14063;41.426;13.854;2022-08-01T09:56:40;10.88;;;4.00;;
26359;SDS011;14063;41.426;13.854;2022-08-01T09:59:10;8.80;;;3.08;;
26359;SDS011;14063;41.426;13.854;2022-08-01T10:01:46;2.30;;;2.20;;
26359;SDS011;14063;41.426;13.854;2022-08-01T10:04:14;3.42;;;2.40;;
26359;SDS011;14063;41.426;13.854;2022-08-01T10:06:42;2.50;;;2.40;;
26359;SDS011;14063;41.426;13.854;2022-08-01T10:09:09;2.83;;;2.30;;
26359;SDS011;14063;41.426;13.854;2022-08-01T10:11:37;2.85;;;2.25;;
26359;SDS011;14063;41.426;13.854;2022-08-01T10:14:06;2.45;;;2.33;;
26359;SDS011;14063;41.426;13.854;2022-08-01T10:16:33;2.35;;;2.22;;
26359;SDS011;14063;41.426;13.854;2022-08-01T10:19:00;2.10;;;2.00;;
26359;SDS011;14063;41.426;13.854;2022-08-01T10:21:27;2.35;;;2.22;;
26359;SDS011;14063;41.426;13.854;2022-08-01T10:23:55;1.90;;;1.80;;
26359;SDS011;14063;41.426;13.854;2022-08-01T10:26:21;1.98;;;1.88;;
26359;SDS011;14063;41.426;13.854;2022-08-01T10:28:48;1.90;;;1.50;;
26359;SDS011;14063;41.426;13.854;2022-08-01T10:31:14;2.17;;;1.60;;
26359;SDS011;14063;41.426;13.854;2022-08-01T10:33:42;1.38;;;1.38;;
26359;SDS011;14063;41.426;13.854;2022-08-01T10:36:09;1.40;;;1.30;;
26359;SDS011;14063;41.426;13.854;2022-08-01T10:38:35;2.58;;;1.10;;
26359;SDS011;14063;41.426;13.854;2022-08-01T10:41:02;1.50;;;1.40;;
26359;SDS011;14063;41.426;13.854;2022-08-01T10:43:29;1.33;;;1.30;;
26359;SDS011;14063;41.426;13.854;2022-08-01T10:45:56;1.08;;;1.08;;
26359;SDS011;14063;41.426;13.854;2022-08-01T10:51:07;1.75;;;1.30;;
26359;SDS011;14063;41.426;13.854;2022-08-01T10:53:34;1.35;;;1.30;;
26359;SDS011;14063;41.426;13.854;2022-08-01T10:56:01;2.85;;;1.30;;
26359;SDS011;14063;41.426;13.854;2022-08-01T10:58:32;1.30;;;1.20;;
26359;SDS011;14063;41.426;13.854;2022-08-01T11:01:21;1.90;;;1.27;;
26359;SDS011;14063;41.426;13.854;2022-08-01T11:08:58;1.35;;;1.30;;
26359;SDS011;14063;41.426;13.854;2022-08-01T11:11:26;2.03;;;1.02;;
26359;SDS011;14063;41.426;13.854;2022-08-01T11:14:05;1.02;;;1.00;;
26359;SDS011;14063;41.426;13.854;2022-08-01T11:16:37;3.35;;;1.42;;
26359;SDS011;14063;41.426;13.854;2022-08-01T11:19:04;4.82;;;1.23;;
26359;SDS011;14063;41.426;13.854;2022-08-01T11:24:22;1.05;;;1.00;;
26359;SDS011;14063;41.426;13.854;2022-08-01T11:27:16;1.10;;;1.10;;
26359;SDS011;14063;41.426;13.854;2022-08-01T11:29:42;1.02;;;1.02;;
26359;SDS011;14063;41.426;13.854;2022-08-01T11:32:27;1.30;;;1.20;;
26359;SDS011;14063;41.426;13.854;2022-08-01T11:34:54;1.70;;;1.30;;
26359;SDS011;14063;41.426;13.854;2022-08-01T11:37:26;1.20;;;1.10;;
26359;SDS011;14063;41.426;13.854;2022-08-01T11:42:37;1.02;;;1.00;;
26359;SDS011;14063;41.426;13.854;2022-08-01T11:45:04;1.20;;;1.10;;
26359;SDS011;14063;41.426;13.854;2022-08-01T11:47:49;2.42;;;1.02;;
26359;SDS011;14063;41.426;13.854;2022-08-01T11:50:30;1.20;;;1.10;;
26359;SDS011;14063;41.426;13.854;2022-08-01T11:53:02;1.23;;;1.00;;
26359;SDS011;14063;41.426;13.854;2022-08-01T11:55:28;1.08;;;1.00;;
26359;SDS011;14063;41.426;13.854;2022-08-01T11:57:59;5.22;;;1.40;;
26359;SDS011;14063;41.426;13.854;2022-08-01T12:00:26;1.10;;;1.00;;
26359;SDS011;14063;41.426;13.854;2022-08-01T12:05:24;1.27;;;1.17;;
26359;SDS011;14063;41.426;13.854;2022-08-01T12:07:52;2.22;;;1.17;;
26359;SDS011;14063;41.426;13.854;2022-08-01T12:10:19;1.25;;;1.10;;
26359;SDS011;14063;41.426;13.854;2022-08-01T12:12:46;1.95;;;1.13;;
26359;SDS011;14063;41.426;13.854;2022-08-01T12:15:20;1.45;;;1.20;;
26359;SDS011;14063;41.426;13.854;2022-08-01T12:17:53;0.95;;;0.90;;
26359;SDS011;14063;41.426;13.854;2022-08-01T12:20:21;2.30;;;1.13;;
26359;SDS011;14063;41.426;13.854;2022-08-01T12:22:52;1.25;;;1.05;;
26359;SDS011;14063;41.426;13.854;2022-08-01T12:25:22;1.08;;;0.98;;
26359;SDS011;14063;41.426;13.854;2022-08-01T12:27:48;0.93;;;0.93;;
26359;SDS011;14063;41.426;13.854;2022-08-01T12:30:18;1.30;;;1.20;;
26359;SDS011;14063;41.426;13.854;2022-08-01T12:32:47;2.35;;;1.05;;
26359;SDS011;14063;41.426;13.854;2022-08-01T12:35:15;1.02;;;1.00;;
26359;SDS011;14063;41.426;13.854;2022-08-01T12:37:45;1.30;;;1.20;;
26359;SDS011;14063;41.426;13.854;2022-08-01T12:40:13;1.50;;;1.20;;
26359;SDS011;14063;41.426;13.854;2022-08-01T12:42:40;0.88;;;0.80;;
26359;SDS011;14063;41.426;13.854;2022-08-01T12:45:07;1.52;;;1.08;;
26359;SDS011;14063;41.426;13.854;2022-08-01T12:47:35;1.05;;;1.00;;
26359;SDS011;14063;41.426;13.854;2022-08-01T12:50:02;1.10;;;0.98;;
26359;SDS011;14063;41.426;13.854;2022-08-01T12:52:30;0.82;;;0.82;;
26359;SDS011;14063;41.426;13.854;2022-08-01T12:55:07;0.77;;;0.77;;
26359;SDS011;14063;41.426;13.854;2022-08-01T12:57:33;0.80;;;0.80;;
26359;SDS011;14063;41.426;13.854;2022-08-01T13:00:06;0.68;;;0.68;;
26359;SDS011;14063;41.426;13.854;2022-08-01T13:02:33;0.80;;;0.80;;
26359;SDS011;14063;41.426;13.854;2022-08-01T13:05:00;0.80;;;0.80;;
26359;SDS011;14063;41.426;13.854;2022-08-01T13:07:36;1.27;;;0.93;;
26359;SDS011;14063;41.426;13.854;2022-08-01T13:10:04;1.33;;;1.23;;
26359;SDS011;14063;41.426;13.854;2022-08-01T13:12:35;1.67;;;0.98;;
26359;SDS011;14063;41.426;13.854;2022-08-01T13:15:16;2.17;;;1.10;;
26359;SDS011;14063;41.426;13.854;2022-08-01T13:17:42;2.00;;;1.00;;
26359;SDS011;14063;41.426;13.854;2022-08-01T13:20:09;1.20;;;1.08;;
26359;SDS011;14063;41.426;13.854;2022-08-01T13:22:36;2.53;;;0.82;;
26359;SDS011;14063;41.426;13.854;2022-08-01T13:25:22;1.20;;;0.70;;
26359;SDS011;14063;41.426;13.854;2022-08-01T13:27:49;1.42;;;1.00;;
26359;SDS011;14063;41.426;13.854;2022-08-01T13:30:16;2.60;;;1.10;;
26359;SDS011;14063;41.426;13.854;2022-08-01T13:32:43;2.78;;;1.23;;
26359;SDS011;14063;41.426;13.854;2022-08-01T13:35:11;1.10;;;0.80;;
26359;SDS011;14063;41.426;13.854;2022-08-01T13:37:38;0.80;;;0.80;;
26359;SDS011;14063;41.426;13.854;2022-08-01T13:40:05;0.80;;;0.80;;
26359;SDS011;14063;41.426;13.854;2022-08-01T13:42:32;1.38;;;0.85;;
26359;SDS011;14063;41.426;13.854;2022-08-01T13:44:59;0.80;;;0.80;;
26359;SDS011;14063;41.426;13.854;2022-08-01T13:47:25;0.90;;;0.90;;
26359;SDS011;14063;41.426;13.854;2022-08-01T13:49:52;0.85;;;0.80;;
26359;SDS011;14063;41.426;13.854;2022-08-01T13:52:18;0.80;;;0.80;;
26359;SDS011;14063;41.426;13.854;2022-08-01T13:54:44;0.90;;;0.90;;
26359;SDS011;14063;41.426;13.854;2022-08-01T13:57:11;1.05;;;1.00;;
26359;SDS011;14063;41.426;13.854;2022-08-01T13:59:39;1.08;;;1.00;;
26359;SDS011;14063;41.426;13.854;2022-08-01T14:02:05;2.35;;;0.90;;
26359;SDS011;14063;41.426;13.854;2022-08-01T14:04:32;1.15;;;0.90;;
26359;SDS011;14063;41.426;13.854;2022-08-01T14:06:58;0.80;;;0.80;;
26359;SDS011;14063;41.426;13.854;2022-08-01T14:09:24;1.88;;;0.90;;
26359;SDS011;14063;41.426;13.854;2022-08-01T14:11:51;1.75;;;1.00;;
26359;SDS011;14063;41.426;13.854;2022-08-01T14:14:17;1.20;;;1.10;;
26359;SDS011;14063;41.426;13.854;2022-08-01T14:16:43;1.10;;;0.90;;
26359;SDS011;14063;41.426;13.854;2022-08-01T14:19:10;1.23;;;0.90;;
26359;SDS011;14063;41.426;13.854;2022-08-01T14:21:37;1.45;;;0.90;;
26359;SDS011;14063;41.426;13.854;2022-08-01T14:24:04;3.53;;;1.00;;
26359;SDS011;14063;41.426;13.854;2022-08-01T14:26:31;2.05;;;0.98;;
26359;SDS011;14063;41.426;13.854;2022-08-01T14:28:57;1.48;;;0.85;;
26359;SDS011;14063;41.426;13.854;2022-08-01T14:31:24;2.75;;;0.90;;
26359;SDS011;14063;41.426;13.854;2022-08-01T14:33:51;0.90;;;0.90;;
26359;SDS011;14063;41.426;13.854;2022-08-01T14:36:20;1.10;;;1.00;;
26359;SDS011;14063;41.426;13.854;2022-08-01T14:38:47;0.80;;;0.80;;
26359;SDS011;14063;41.426;13.854;2022-08-01T14:41:15;4.93;;;1.42;;
26359;SDS011;14063;41.426;13.854;2022-08-01T14:43:42;6.93;;;1.30;;
26359;SDS011;14063;41.426;13.854;2022-08-01T14:46:09;4.80;;;1.75;;
26359;SDS011;14063;41.426;13.854;2022-08-01T14:48:37;6.57;;;1.23;;
26359;SDS011;14063;41.426;13.854;2022-08-01T14:51:05;1.83;;;1.00;;
26359;SDS011;14063;41.426;13.854;2022-08-01T14:53:32;6.03;;;1.17;;
26359;SDS011;14063;41.426;13.854;2022-08-01T14:56:02;1.38;;;0.93;;
26359;SDS011;14063;41.426;13.854;2022-08-01T14:58:29;1.83;;;1.15;;
26359;SDS011;14063;41.426;13.854;2022-08-01T15:00:55;1.33;;;1.15;;
26359;SDS011;14063;41.426;13.854;2022-08-01T15:03:22;3.38;;;1.20;;
26359;SDS011;14063;41.426;13.854;2022-08-01T15:05:48;2.67;;;1.40;;
26359;SDS011;14063;41.426;13.854;2022-08-01T15:08:14;1.50;;;1.40;;